Time;durP1;ratioP1;P1;durP2;ratioP2;P2;SDS_P1;SDS_P2;PMS_P1;PMS_P2;Temp;Humidity;BMP_temperature;BMP_pressure;BME280_temperature;BME280_humidity;BME280_pressure;Samples;Min_cycle;Max_cycle;Signal;HPM_P1;HPM_P2
2021/09/13 00:01:54;;;;;;;;;;;23.80;60.80;;;;;;4992117;28;19930;-68
2021/09/13 00:04:21;;;;;;;;;;;23.80;60.80;;;;;;4991853;28;19926;-67
2021/09/13 00:06:48;;;;;;;;;;;23.80;60.70;;;;;;4974552;28;19976;-66
2021/09/13 00:09:15;;;;;;;;;;;23.80;60.70;;;;;;4991010;28;20020;-66
2021/09/13 00:11:42;;;;;;;;;;;23.80;60.80;;;;;;4992103;28;20285;-66
2021/09/13 00:14:10;;;;;;;;;;;23.80;60.70;;;;;;4990697;28;19979;-69
2021/09/13 00:16:37;;;;;;;;;;;23.80;60.70;;;;;;4991888;28;20338;-66
2021/09/13 00:19:04;;;;;;;;;;;23.80;60.70;;;;;;4991748;28;20408;-66
2021/09/13 00:21:31;;;;;;;;;;;23.80;60.70;;;;;;4991581;28;20044;-66
2021/09/13 00:23:58;;;;;;;;;;;23.80;60.70;;;;;;4991893;28;19975;-66
2021/09/13 00:26:25;;;;;;;;;;;23.80;60.70;;;;;;4991762;28;20382;-66
2021/09/13 00:28:51;;;;;;;;;;;23.80;60.70;;;;;;4991393;28;20032;-66
2021/09/13 00:31:19;;;;;;;;;;;23.80;60.70;;;;;;4974181;28;19974;-68
2021/09/13 00:33:46;;;;;;;;;;;23.80;61.40;;;;;;4991884;28;20352;-66
2021/09/13 00:36:13;;;;;;;;;;;23.80;60.70;;;;;;4990906;28;20416;-67
2021/09/13 00:38:40;;;;;;;;;;;23.80;60.70;;;;;;4990208;28;19932;-66
2021/09/13 00:41:07;;;;;;;;;;;23.80;60.70;;;;;;4991519;28;20431;-66
2021/09/13 00:43:34;;;;;;;;;;;23.80;60.80;;;;;;4990097;28;20015;-66
2021/09/13 00:46:01;;;;;;;;;;;23.80;60.80;;;;;;4991249;28;19926;-66
2021/09/13 00:48:28;;;;;;;;;;;23.80;60.80;;;;;;4990086;28;19926;-66
2021/09/13 00:50:55;;;;;;;;;;;23.80;60.80;;;;;;4991411;28;19973;-66
2021/09/13 00:53:22;;;;;;;;;;;23.80;60.80;;;;;;4991397;28;19953;-66
2021/09/13 00:55:53;;;;;;;;;;;23.80;60.80;;;;;;4990893;28;20005;-66
2021/09/13 00:58:22;;;;;;;;;;;23.80;60.80;;;;;;4991150;28;20346;-66
2021/09/13 01:00:49;;;;;;;;;;;23.80;60.70;;;;;;4991458;28;19991;-66
2021/09/13 01:03:16;;;;;;;;;;;23.80;60.80;;;;;;4991354;28;19926;-66
2021/09/13 01:05:43;;;;;;;;;;;23.80;60.70;;;;;;4991193;28;20008;-67
2021/09/13 01:08:10;;;;;;;;;;;23.80;60.80;;;;;;4991348;28;20011;-66
2021/09/13 01:10:37;;;;;;;;;;;23.80;60.70;;;;;;4990512;28;19929;-66
2021/09/13 01:13:04;;;;;;;;;;;23.80;60.70;;;;;;4972796;28;19953;-67
2021/09/13 01:16:00;;;;;;;;;;;23.80;60.70;;;;;;4990857;28;19965;-66
2021/09/13 01:18:27;;;;;;;;;;;23.80;60.70;;;;;;4968736;28;19926;-66
2021/09/13 01:20:56;;;;;;;;;;;23.80;60.70;;;;;;4969244;28;19963;-67
2021/09/13 01:23:27;;;;;;;;;;;23.80;60.70;;;;;;4968184;28;19970;-67
2021/09/13 01:25:54;;;;;;;;;;;23.80;60.70;;;;;;4968193;28;20031;-67
2021/09/13 01:28:21;;;;;;;;;;;23.80;60.70;;;;;;4968899;28;19972;-66
2021/09/13 01:30:48;;;;;;;;;;;23.80;61.40;;;;;;4969022;28;19926;-67
2021/09/13 01:33:15;;;;;;;;;;;23.80;60.70;;;;;;4967974;28;19934;-66
2021/09/13 01:35:42;;;;;;;;;;;23.80;60.70;;;;;;4969130;28;20421;-67
2021/09/13 01:38:09;;;;;;;;;;;23.80;60.70;;;;;;4968991;28;20008;-67
2021/09/13 01:40:36;;;;;;;;;;;23.80;60.70;;;;;;4969154;28;20013;-66
2021/09/13 01:43:03;;;;;;;;;;;23.80;60.70;;;;;;4972075;28;19979;-67
2021/09/13 01:45:30;;;;;;;;;;;23.80;60.70;;;;;;4967965;28;19930;-67
2021/09/13 01:47:57;;;;;;;;;;;23.80;60.70;;;;;;4968575;28;20596;-67
2021/09/13 01:50:24;;;;;;;;;;;23.80;60.70;;;;;;4988975;28;19930;-66
2021/09/13 01:52:51;;;;;;;;;;;23.80;60.70;;;;;;5051214;28;20364;-67
2021/09/13 01:55:18;;;;;;;;;;;23.80;60.60;;;;;;4994950;28;19948;-67
2021/09/13 01:57:45;;;;;;;;;;;23.80;60.60;;;;;;4989390;28;20030;-66
2021/09/13 02:00:15;;;;;;;;;;;23.80;60.60;;;;;;4990237;28;19933;-68
2021/09/13 02:02:42;;;;;;;;;;;23.80;60.60;;;;;;4990421;28;19971;-66
2021/09/13 02:05:09;;;;;;;;;;;23.80;60.60;;;;;;4989092;28;20395;-67
2021/09/13 02:07:36;;;;;;;;;;;23.80;60.60;;;;;;4990229;28;19926;-66
2021/09/13 02:10:04;;;;;;;;;;;23.80;60.70;;;;;;4990242;28;19930;-66
2021/09/13 02:12:31;;;;;;;;;;;23.80;60.70;;;;;;4990281;28;20017;-66
2021/09/13 02:14:59;;;;;;;;;;;23.80;60.60;;;;;;4990134;28;19933;-66
2021/09/13 02:17:26;;;;;;;;;;;23.80;60.70;;;;;;4989839;28;19969;-66
2021/09/13 02:19:53;;;;;;;;;;;23.80;60.70;;;;;;4988968;28;19930;-66
2021/09/13 02:22:20;;;;;;;;;;;23.80;60.70;;;;;;4989118;28;19925;-66
2021/09/13 02:24:47;;;;;;;;;;;23.80;60.70;;;;;;4988949;28;20014;-68
2021/09/13 02:27:14;;;;;;;;;;;23.80;60.70;;;;;;4988965;28;19932;-66
2021/09/13 02:29:41;;;;;;;;;;;23.80;60.70;;;;;;4988989;28;19973;-67
2021/09/13 02:32:08;;;;;;;;;;;23.80;60.70;;;;;;4989119;28;20021;-66
2021/09/13 02:34:35;;;;;;;;;;;23.80;60.70;;;;;;4990040;28;19977;-66
2021/09/13 02:37:02;;;;;;;;;;;23.80;60.70;;;;;;4990089;28;20005;-66
2021/09/13 02:39:29;;;;;;;;;;;23.80;60.60;;;;;;4990251;28;19933;-66
2021/09/13 02:41:56;;;;;;;;;;;23.80;60.60;;;;;;4989160;28;20431;-66
2021/09/13 02:44:25;;;;;;;;;;;23.80;61.30;;;;;;4989361;28;20040;-66
2021/09/13 02:46:52;;;;;;;;;;;23.80;60.60;;;;;;4972948;28;19989;-66
2021/09/13 02:49:19;;;;;;;;;;;23.70;60.60;;;;;;4988373;28;19929;-66
2021/09/13 02:51:46;;;;;;;;;;;23.80;60.70;;;;;;5004676;28;19924;-66
2021/09/13 02:54:13;;;;;;;;;;;23.70;60.60;;;;;;4999612;28;20012;-66
2021/09/13 02:56:40;;;;;;;;;;;23.70;60.60;;;;;;4989541;28;20270;-67
2021/09/13 02:59:07;;;;;;;;;;;23.80;60.60;;;;;;4988774;28;19965;-67
2021/09/13 03:01:34;;;;;;;;;;;23.80;60.70;;;;;;4990906;28;20390;-67
2021/09/13 03:04:01;;;;;;;;;;;23.70;60.50;;;;;;4992694;28;19968;-66
2021/09/13 03:06:28;;;;;;;;;;;23.80;60.70;;;;;;4992769;28;19975;-66
2021/09/13 03:08:55;;;;;;;;;;;23.80;60.60;;;;;;4991955;28;20346;-67
2021/09/13 03:11:22;;;;;;;;;;;23.80;60.60;;;;;;4991674;28;20004;-67
2021/09/13 03:13:49;;;;;;;;;;;23.80;60.60;;;;;;4991624;28;20377;-67
2021/09/13 03:16:16;;;;;;;;;;;23.80;60.60;;;;;;4992897;28;19975;-67
2021/09/13 03:18:43;;;;;;;;;;;23.80;60.60;;;;;;4992479;28;20403;-67
2021/09/13 03:21:11;;;;;;;;;;;23.70;60.60;;;;;;4992585;28;20017;-67
2021/09/13 03:23:38;;;;;;;;;;;23.80;60.60;;;;;;4992489;28;19926;-67
2021/09/13 03:26:05;;;;;;;;;;;23.70;60.50;;;;;;4992628;28;19961;-66
2021/09/13 03:28:34;;;;;;;;;;;23.80;60.70;;;;;;4991174;28;20020;-66
2021/09/13 03:31:01;;;;;;;;;;;23.80;60.60;;;;;;4992781;28;20000;-66
2021/09/13 03:33:28;;;;;;;;;;;23.70;61.30;;;;;;4991392;28;19973;-68
2021/09/13 03:35:55;;;;;;;;;;;23.70;60.50;;;;;;4991963;28;19929;-66
2021/09/13 03:38:22;;;;;;;;;;;23.70;60.50;;;;;;5007641;28;19968;-66
2021/09/13 03:40:49;;;;;;;;;;;23.70;60.50;;;;;;4991565;28;20017;-67
2021/09/13 03:43:16;;;;;;;;;;;23.70;60.50;;;;;;4992642;28;19973;-66
2021/09/13 03:45:43;;;;;;;;;;;23.70;60.50;;;;;;4991393;28;19926;-66
2021/09/13 03:48:10;;;;;;;;;;;23.70;60.50;;;;;;4992405;28;20130;-66
2021/09/13 03:50:37;;;;;;;;;;;23.70;60.50;;;;;;4992387;28;20331;-67
2021/09/13 03:53:04;;;;;;;;;;;23.70;60.60;;;;;;4996668;28;19930;-66
2021/09/13 03:55:32;;;;;;;;;;;23.70;60.60;;;;;;4990928;28;20400;-66
2021/09/13 03:57:59;;;;;;;;;;;23.70;60.60;;;;;;4973936;28;20364;-67
2021/09/13 04:00:26;;;;;;;;;;;23.70;60.60;;;;;;4992405;28;20331;-67
2021/09/13 04:02:53;;;;;;;;;;;23.70;60.60;;;;;;4991289;28;19929;-66
2021/09/13 04:05:25;;;;;;;;;;;23.70;60.70;;;;;;4991790;28;19933;-66
2021/09/13 04:10:23;;;;;;;;;;;23.70;60.60;;;;;;4991766;28;19976;-67
2021/09/13 04:12:50;;;;;;;;;;;23.70;60.60;;;;;;4989502;28;20025;-67
2021/09/13 04:15:17;;;;;;;;;;;23.70;60.60;;;;;;4991832;28;19969;-66
2021/09/13 04:17:44;;;;;;;;;;;23.70;60.60;;;;;;4990672;28;20028;-66
2021/09/13 04:20:12;;;;;;;;;;;23.70;60.60;;;;;;4991903;28;19926;-66
2021/09/13 04:22:39;;;;;;;;;;;23.70;60.60;;;;;;4991919;28;19934;-67
2021/09/13 04:25:06;;;;;;;;;;;23.70;60.60;;;;;;4990564;28;20403;-66
2021/09/13 04:27:33;;;;;;;;;;;23.70;60.60;;;;;;4990671;28;19953;-66
2021/09/13 04:30:00;;;;;;;;;;;23.70;60.50;;;;;;4992016;28;20012;-66
2021/09/13 04:32:27;;;;;;;;;;;23.70;60.50;;;;;;4992028;28;19967;-66
2021/09/13 04:34:54;;;;;;;;;;;23.70;60.50;;;;;;4991169;28;19979;-68
2021/09/13 04:37:21;;;;;;;;;;;23.70;60.50;;;;;;4991107;28;19925;-66
2021/09/13 04:39:48;;;;;;;;;;;23.70;60.50;;;;;;4991775;28;19933;-66
2021/09/13 04:42:15;;;;;;;;;;;23.70;60.50;;;;;;4990849;28;19991;-66
2021/09/13 04:44:42;;;;;;;;;;;23.70;60.50;;;;;;4991294;28;20016;-67
2021/09/13 04:47:09;;;;;;;;;;;23.70;60.50;;;;;;4991252;28;19970;-66
2021/09/13 04:49:36;;;;;;;;;;;23.70;60.50;;;;;;4991390;28;19930;-66
2021/09/13 04:52:04;;;;;;;;;;;23.70;60.50;;;;;;5002443;28;20429;-66
2021/09/13 04:54:31;;;;;;;;;;;23.70;60.50;;;;;;5015460;28;20032;-66
2021/09/13 04:56:59;;;;;;;;;;;23.70;60.50;;;;;;4990855;28;20008;-67
2021/09/13 04:59:29;;;;;;;;;;;23.70;60.50;;;;;;4991097;28;19977;-67
2021/09/13 05:01:56;;;;;;;;;;;23.80;60.50;;;;;;4990044;28;20477;-67
2021/09/13 05:04:24;;;;;;;;;;;23.80;60.50;;;;;;4972966;28;19988;-66
2021/09/13 05:06:50;;;;;;;;;;;23.80;60.50;;;;;;4991046;28;19926;-66
2021/09/13 05:09:17;;;;;;;;;;;23.80;60.40;;;;;;4990801;28;19926;-66
2021/09/13 05:11:46;;;;;;;;;;;23.80;60.40;;;;;;4990101;28;19956;-66
2021/09/13 05:14:13;;;;;;;;;;;23.80;61.20;;;;;;4990181;28;19926;-66
2021/09/13 05:16:40;;;;;;;;;;;23.80;60.40;;;;;;4989638;28;20381;-66
2021/09/13 05:19:08;;;;;;;;;;;23.80;60.40;;;;;;4990747;28;19925;-66
2021/09/13 05:21:38;;;;;;;;;;;23.80;60.30;;;;;;4990733;28;20381;-66
2021/09/13 05:24:06;;;;;;;;;;;23.80;60.30;;;;;;4990537;28;19965;-67
2021/09/13 05:26:33;;;;;;;;;;;23.80;60.30;;;;;;4989411;28;19977;-68
2021/09/13 05:29:01;;;;;;;;;;;23.80;60.20;;;;;;4990623;28;19932;-66
2021/09/13 05:31:28;;;;;;;;;;;23.80;60.20;;;;;;4990924;28;20385;-68
2021/09/13 05:33:55;;;;;;;;;;;23.90;60.20;;;;;;4990011;28;19937;-67
2021/09/13 05:36:22;;;;;;;;;;;23.90;60.20;;;;;;4990729;28;20008;-66
2021/09/13 05:38:49;;;;;;;;;;;23.80;60.00;;;;;;4990264;28;20458;-66
2021/09/13 05:41:16;;;;;;;;;;;23.90;60.10;;;;;;4990201;28;20427;-67
2021/09/13 05:43:44;;;;;;;;;;;23.90;60.10;;;;;;4990257;28;19997;-67
2021/09/13 05:46:10;;;;;;;;;;;23.90;60.00;;;;;;4990522;28;19961;-66
2021/09/13 05:48:38;;;;;;;;;;;23.90;60.00;;;;;;4989152;28;19926;-67
2021/09/13 05:51:04;;;;;;;;;;;23.90;60.00;;;;;;4990244;28;20015;-66
2021/09/13 05:53:31;;;;;;;;;;;23.90;60.00;;;;;;5002321;28;19926;-66
2021/09/13 05:55:59;;;;;;;;;;;23.90;60.00;;;;;;4990144;28;19925;-66
2021/09/13 05:58:26;;;;;;;;;;;23.90;60.00;;;;;;4989297;28;20354;-66
2021/09/13 06:00:53;;;;;;;;;;;23.90;59.90;;;;;;4990392;28;19934;-66
2021/09/13 06:03:20;;;;;;;;;;;23.90;59.90;;;;;;4990308;28;19965;-66
2021/09/13 06:05:47;;;;;;;;;;;23.90;59.80;;;;;;4989273;28;20309;-66
2021/09/13 06:08:14;;;;;;;;;;;24.00;59.90;;;;;;4989940;28;19966;-66
2021/09/13 06:10:41;;;;;;;;;;;23.90;59.80;;;;;;4989843;28;19961;-67
2021/09/13 06:13:11;;;;;;;;;;;24.00;59.80;;;;;;4990507;28;19926;-67
2021/09/13 06:15:39;;;;;;;;;;;24.00;59.80;;;;;;4990034;28;19926;-66
2021/09/13 06:18:06;;;;;;;;;;;24.00;59.70;;;;;;4989840;28;19937;-66
2021/09/13 06:20:33;;;;;;;;;;;24.00;59.70;;;;;;4989886;28;19929;-66
2021/09/13 06:23:00;;;;;;;;;;;24.00;59.70;;;;;;4990164;28;20012;-68
2021/09/13 06:25:27;;;;;;;;;;;24.00;59.70;;;;;;4989907;28;19932;-66
2021/09/13 06:27:54;;;;;;;;;;;24.00;59.60;;;;;;4972946;28;19973;-66
2021/09/13 06:30:21;;;;;;;;;;;24.00;59.60;;;;;;4988838;28;20009;-66
2021/09/13 06:32:48;;;;;;;;;;;24.10;59.70;;;;;;4988836;28;20402;-67
2021/09/13 06:35:16;;;;;;;;;;;24.10;59.60;;;;;;4989646;28;19934;-66
2021/09/13 06:37:43;;;;;;;;;;;24.10;59.60;;;;;;4993095;28;19956;-66
2021/09/13 06:40:10;;;;;;;;;;;24.10;59.50;;;;;;4992981;28;19925;-66
2021/09/13 06:42:38;;;;;;;;;;;24.10;59.50;;;;;;4991965;28;19930;-67
2021/09/13 06:45:19;;;;;;;;;;;24.10;59.50;;;;;;4993159;28;20378;-66
2021/09/13 06:47:46;;;;;;;;;;;24.10;59.50;;;;;;4992014;28;19955;-66
2021/09/13 06:50:16;;;;;;;;;;;24.10;59.50;;;;;;4993208;28;19925;-66
2021/09/13 06:52:44;;;;;;;;;;;24.10;59.40;;;;;;5048349;28;19946;-66
2021/09/13 06:55:11;;;;;;;;;;;24.10;59.40;;;;;;5015205;28;19926;-66
2021/09/13 06:57:40;;;;;;;;;;;24.20;59.50;;;;;;4991862;28;20406;-66
2021/09/13 07:00:11;;;;;;;;;;;24.20;59.40;;;;;;4993107;28;19934;-66
2021/09/13 07:02:39;;;;;;;;;;;24.20;59.30;;;;;;4992023;28;19960;-66
2021/09/13 07:05:07;;;;;;;;;;;24.20;59.30;;;;;;4992707;28;19930;-67
2021/09/13 07:07:37;;;;;;;;;;;24.20;59.30;;;;;;4992747;28;19930;-66
2021/09/13 07:10:05;;;;;;;;;;;24.20;59.30;;;;;;4992654;28;19937;-67
2021/09/13 07:12:33;;;;;;;;;;;24.20;59.30;;;;;;4992710;28;19926;-66
2021/09/13 07:15:00;;;;;;;;;;;24.20;59.30;;;;;;4993033;28;19969;-66
2021/09/13 07:17:27;;;;;;;;;;;24.30;59.30;;;;;;4991547;28;19987;-66
2021/09/13 07:19:54;;;;;;;;;;;24.30;59.30;;;;;;4992608;28;19925;-67
2021/09/13 07:22:21;;;;;;;;;;;24.30;59.30;;;;;;4991699;28;19925;-67
2021/09/13 07:24:48;;;;;;;;;;;24.30;59.30;;;;;;4992481;28;20444;-66
2021/09/13 07:27:15;;;;;;;;;;;24.30;59.20;;;;;;4992135;28;20393;-66
2021/09/13 07:29:43;;;;;;;;;;;24.30;59.20;;;;;;4992175;28;20066;-67
2021/09/13 07:32:09;;;;;;;;;;;24.30;59.20;;;;;;4992499;28;19926;-66
2021/09/13 07:34:37;;;;;;;;;;;24.40;59.20;;;;;;4992216;28;19926;-67
2021/09/13 07:37:04;;;;;;;;;;;24.30;59.10;;;;;;4992228;28;19932;-66
2021/09/13 07:39:31;;;;;;;;;;;24.40;59.20;;;;;;4992695;28;20038;-67
2021/09/13 07:41:59;;;;;;;;;;;24.40;59.20;;;;;;4992274;28;19933;-66
2021/09/13 07:44:26;;;;;;;;;;;24.40;59.10;;;;;;4991367;28;19926;-66
2021/09/13 07:46:53;;;;;;;;;;;24.40;59.10;;;;;;4992016;28;20012;-66
2021/09/13 07:49:21;;;;;;;;;;;24.40;59.10;;;;;;4992062;28;20503;-67
2021/09/13 07:51:48;;;;;;;;;;;24.40;59.10;;;;;;5009001;28;20075;-67
2021/09/13 07:54:15;;;;;;;;;;;24.40;59.10;;;;;;5013346;28;19926;-66
2021/09/13 07:56:42;;;;;;;;;;;24.40;59.00;;;;;;4991772;28;19987;-66
2021/09/13 07:59:10;;;;;;;;;;;24.40;58.90;;;;;;4991047;28;20006;-66
2021/09/13 08:01:37;;;;;;;;;;;24.50;59.00;;;;;;4991912;28;19975;-68
2021/09/13 08:04:06;;;;;;;;;;;24.50;59.00;;;;;;4991757;28;19957;-66
2021/09/13 08:06:33;;;;;;;;;;;24.50;58.90;;;;;;4992054;28;20533;-66
2021/09/13 08:09:00;;;;;;;;;;;24.50;58.90;;;;;;4991901;28;19933;-66
2021/09/13 08:11:27;;;;;;;;;;;24.50;58.90;;;;;;4990649;28;19930;-66
2021/09/13 08:13:54;;;;;;;;;;;24.50;58.80;;;;;;4990957;28;19926;-67
2021/09/13 08:16:21;;;;;;;;;;;24.50;58.80;;;;;;4991908;28;19926;-66
2021/09/13 08:18:48;;;;;;;;;;;24.50;58.80;;;;;;4991731;28;19926;-67
2021/09/13 08:21:15;;;;;;;;;;;24.50;58.70;;;;;;4991848;28;19926;-66
2021/09/13 08:23:42;;;;;;;;;;;24.60;58.80;;;;;;4991582;28;20008;-66
2021/09/13 08:26:09;;;;;;;;;;;24.60;58.80;;;;;;4991080;28;20388;-68
2021/09/13 08:28:37;;;;;;;;;;;24.60;58.70;;;;;;4990767;28;20000;-67
2021/09/13 08:31:04;;;;;;;;;;;24.60;58.70;;;;;;4991470;28;19926;-67
2021/09/13 08:33:31;;;;;;;;;;;24.60;58.70;;;;;;4991204;28;19933;-66
2021/09/13 08:35:58;;;;;;;;;;;24.60;58.70;;;;;;4991634;28;19930;-67
2021/09/13 08:38:25;;;;;;;;;;;24.60;58.70;;;;;;4989333;28;20357;-66
2021/09/13 08:40:52;;;;;;;;;;;24.60;58.60;;;;;;4991329;28;19929;-68
2021/09/13 08:43:20;;;;;;;;;;;24.70;58.70;;;;;;4991440;28;20008;-66
2021/09/13 08:45:52;;;;;;;;;;;24.70;58.60;;;;;;4990384;28;20452;-66
2021/09/13 08:48:39;;;;;;;;;;;24.70;58.60;;;;;;4990140;28;20021;-66
2021/09/13 08:53:45;;;;;;;;;;;24.70;58.60;;;;;;4997529;28;19988;-66
2021/09/13 08:56:16;;;;;;;;;;;24.70;58.60;;;;;;4990268;28;20353;-66
2021/09/13 08:58:44;;;;;;;;;;;24.70;58.60;;;;;;4990301;28;20024;-66
2021/09/13 09:01:12;;;;;;;;;;;24.70;58.70;;;;;;4990198;28;19949;-67
2021/09/13 09:03:40;;;;;;;;;;;24.70;58.70;;;;;;4974093;28;20327;-66
2021/09/13 09:06:07;;;;;;;;;;;24.70;58.80;;;;;;4991086;28;19961;-66
2021/09/13 09:08:36;;;;;;;;;;;24.70;58.80;;;;;;4990955;28;20394;-66
2021/09/13 09:11:08;;;;;;;;;;;24.70;58.90;;;;;;4989773;28;20392;-66
2021/09/13 09:13:43;;;;;;;;;;;24.70;58.90;;;;;;4989988;28;20420;-66
2021/09/13 09:16:13;;;;;;;;;;;24.70;58.90;;;;;;4991384;28;19962;-66
2021/09/13 09:18:44;;;;;;;;;;;24.70;59.10;;;;;;4990719;28;19926;-66
2021/09/13 09:21:12;;;;;;;;;;;24.60;59.10;;;;;;4990967;28;19926;-67
2021/09/13 09:23:58;;;;;;;;;;;24.60;59.10;;;;;;4990629;28;19940;-66
2021/09/13 09:26:27;;;;;;;;;;;24.70;59.10;;;;;;4990463;28;20008;-66
2021/09/13 09:28:56;;;;;;;;;;;24.70;59.20;;;;;;4990628;28;19934;-66
2021/09/13 09:31:43;;;;;;;;;;;24.70;59.30;;;;;;4990852;28;19948;-66
2021/09/13 09:34:13;;;;;;;;;;;24.70;59.20;;;;;;4990494;28;19932;-66
2021/09/13 09:36:40;;;;;;;;;;;24.70;59.30;;;;;;4990699;28;20365;-66
2021/09/13 09:39:11;;;;;;;;;;;24.70;59.30;;;;;;4989440;28;19979;-66
2021/09/13 09:41:43;;;;;;;;;;;24.70;59.30;;;;;;4989539;28;19932;-66
2021/09/13 09:44:10;;;;;;;;;;;24.70;59.30;;;;;;4989672;28;19969;-66
2021/09/13 09:46:41;;;;;;;;;;;24.70;59.30;;;;;;4990517;28;20381;-66
2021/09/13 09:49:08;;;;;;;;;;;24.70;59.30;;;;;;4990557;28;19926;-66
2021/09/13 09:51:36;;;;;;;;;;;24.60;59.30;;;;;;4998492;28;19969;-66
2021/09/13 09:54:14;;;;;;;;;;;24.60;59.30;;;;;;5046905;28;20313;-66
2021/09/13 09:56:42;;;;;;;;;;;24.70;59.40;;;;;;4990380;28;19925;-66
2021/09/13 09:59:10;;;;;;;;;;;24.60;59.40;;;;;;4990326;28;20424;-67
2021/09/13 10:01:40;;;;;;;;;;;24.60;59.40;;;;;;4990481;28;19929;-66
2021/09/13 10:04:11;;;;;;;;;;;24.60;59.30;;;;;;4990281;28;20297;-67
2021/09/13 10:06:42;;;;;;;;;;;24.70;59.40;;;;;;4990206;28;19971;-66
2021/09/13 10:09:10;;;;;;;;;;;24.70;59.40;;;;;;4989090;28;19957;-67
2021/09/13 10:11:39;;;;;;;;;;;24.70;59.30;;;;;;4993366;28;19933;-66
2021/09/13 10:14:08;;;;;;;;;;;24.70;59.30;;;;;;4993785;28;19976;-66
2021/09/13 10:16:39;;;;;;;;;;;24.70;59.30;;;;;;4992230;28;20011;-66
2021/09/13 10:19:06;;;;;;;;;;;24.70;59.30;;;;;;4975791;28;19976;-66
2021/09/13 10:21:34;;;;;;;;;;;24.70;59.30;;;;;;4994121;28;19940;-67
2021/09/13 10:24:02;;;;;;;;;;;24.70;59.30;;;;;;4993669;28;20393;-66
2021/09/13 10:26:29;;;;;;;;;;;24.70;59.20;;;;;;4992936;28;20098;-66
2021/09/13 10:29:02;;;;;;;;;;;24.70;59.20;;;;;;4992685;28;20451;-67
2021/09/13 10:31:42;;;;;;;;;;;24.70;59.20;;;;;;4992592;28;19980;-67
2021/09/13 10:34:15;;;;;;;;;;;24.80;59.30;;;;;;4993318;28;19925;-66
2021/09/13 10:37:01;;;;;;;;;;;24.80;59.20;;;;;;4992902;28;20009;-66
2021/09/13 10:39:47;;;;;;;;;;;24.70;59.10;;;;;;4977150;28;19926;-67
2021/09/13 10:42:31;;;;;;;;;;;24.80;59.20;;;;;;4978057;28;20001;-68
2021/09/13 10:45:22;;;;;;;;;;;24.80;59.20;;;;;;4978218;28;19926;-66
2021/09/13 10:47:50;;;;;;;;;;;24.80;59.20;;;;;;4999042;28;20009;-67
2021/09/13 10:50:35;;;;;;;;;;;24.80;59.20;;;;;;4993555;28;20326;-67
2021/09/13 10:53:03;;;;;;;;;;;24.80;59.20;;;;;;5019021;28;19925;-67
2021/09/13 10:55:38;;;;;;;;;;;24.80;59.20;;;;;;4974900;28;19925;-66
2021/09/13 10:58:13;;;;;;;;;;;24.80;59.20;;;;;;4992767;28;19926;-67
2021/09/13 11:00:43;;;;;;;;;;;24.80;59.10;;;;;;4991824;28;20001;-66
2021/09/13 11:03:30;;;;;;;;;;;24.80;59.10;;;;;;4993175;28;19975;-66
2021/09/13 11:06:07;;;;;;;;;;;24.80;59.10;;;;;;4992124;28;20342;-66
2021/09/13 11:08:37;;;;;;;;;;;24.80;59.10;;;;;;4993081;28;19965;-67
2021/09/13 11:11:27;;;;;;;;;;;24.80;59.10;;;;;;4991981;28;20368;-67
2021/09/13 11:14:04;;;;;;;;;;;24.80;59.10;;;;;;4983930;28;19932;-66
2021/09/13 11:16:33;;;;;;;;;;;24.80;59.10;;;;;;4992596;28;19926;-66
2021/09/13 11:19:03;;;;;;;;;;;24.80;59.10;;;;;;4992536;28;19925;-66
2021/09/13 11:21:31;;;;;;;;;;;24.90;59.20;;;;;;4991268;28;20294;-66
2021/09/13 11:24:06;;;;;;;;;;;24.80;59.10;;;;;;4992797;28;19926;-66
2021/09/13 11:26:41;;;;;;;;;;;24.80;59.10;;;;;;4992651;28;19973;-67
2021/09/13 11:29:09;;;;;;;;;;;24.80;59.10;;;;;;4997075;28;19925;-67
2021/09/13 11:31:42;;;;;;;;;;;24.80;59.10;;;;;;5003306;28;20135;-66
2021/09/13 11:34:11;;;;;;;;;;;24.80;59.10;;;;;;4991447;28;19971;-67
2021/09/13 11:36:40;;;;;;;;;;;24.80;59.10;;;;;;4992401;28;19961;-66
2021/09/13 11:39:08;;;;;;;;;;;24.80;59.10;;;;;;4992641;28;20075;-67
2021/09/13 11:41:35;;;;;;;;;;;24.90;59.10;;;;;;4992343;28;19933;-67
2021/09/13 11:44:04;;;;;;;;;;;24.90;59.20;;;;;;4992397;28;19926;-66
2021/09/13 11:46:32;;;;;;;;;;;24.90;59.20;;;;;;4991158;28;19926;-66
2021/09/13 11:49:16;;;;;;;;;;;24.80;59.10;;;;;;4991574;28;19934;-66
2021/09/13 11:51:58;;;;;;;;;;;24.80;59.10;;;;;;4994736;28;19949;-67
2021/09/13 11:54:26;;;;;;;;;;;24.80;59.20;;;;;;4991831;28;19926;-66
2021/09/13 11:56:53;;;;;;;;;;;24.80;59.20;;;;;;4991783;28;20009;-67
2021/09/13 11:59:31;;;;;;;;;;;24.80;59.30;;;;;;4991871;28;20019;-66
2021/09/13 12:02:02;;;;;;;;;;;24.80;59.30;;;;;;4992220;28;19948;-66
2021/09/13 12:04:30;;;;;;;;;;;24.70;59.30;;;;;;4991776;28;19926;-66
2021/09/13 12:07:11;;;;;;;;;;;24.70;59.30;;;;;;4992432;28;20028;-66
2021/09/13 12:09:39;;;;;;;;;;;24.70;59.30;;;;;;4991018;28;20342;-67
2021/09/13 12:12:07;;;;;;;;;;;24.70;59.30;;;;;;4991767;28;20400;-67
2021/09/13 12:14:35;;;;;;;;;;;24.70;59.30;;;;;;4990741;28;20009;-67
2021/09/13 12:17:03;;;;;;;;;;;24.70;59.40;;;;;;4975106;28;19934;-67
2021/09/13 12:19:30;;;;;;;;;;;24.70;59.40;;;;;;4992142;28;20012;-68
2021/09/13 12:21:59;;;;;;;;;;;24.70;59.30;;;;;;4991997;28;20324;-66
2021/09/13 12:24:39;;;;;;;;;;;24.70;59.40;;;;;;4990778;28;20020;-66
2021/09/13 12:27:14;;;;;;;;;;;24.70;59.40;;;;;;4991604;28;20289;-66
2021/09/13 12:30:10;;;;;;;;;;;24.70;59.40;;;;;;4991617;28;19982;-66
2021/09/13 12:32:37;;;;;;;;;;;24.70;59.40;;;;;;4984090;28;20013;-66
2021/09/13 12:35:06;;;;;;;;;;;24.70;59.50;;;;;;4989253;28;20274;-67
2021/09/13 12:37:38;;;;;;;;;;;24.70;59.50;;;;;;4974958;28;19979;-67
2021/09/13 12:40:15;;;;;;;;;;;24.70;59.50;;;;;;4974252;28;19940;-66
2021/09/13 12:42:56;;;;;;;;;;;24.70;59.50;;;;;;4973885;28;19945;-66
2021/09/13 12:45:33;;;;;;;;;;;24.70;59.50;;;;;;4975730;28;20285;-69
2021/09/13 12:48:01;;;;;;;;;;;24.70;59.50;;;;;;4990370;28;19925;-67
2021/09/13 12:50:33;;;;;;;;;;;24.70;59.50;;;;;;4991361;28;19963;-66
2021/09/13 12:53:06;;;;;;;;;;;24.70;59.50;;;;;;5037636;28;20014;-66
2021/09/13 12:55:42;;;;;;;;;;;24.70;59.50;;;;;;5110368;27;20255;-67
2021/09/13 12:58:22;;;;;;;;;;;24.70;59.40;;;;;;5107531;28;19928;-66
2021/09/13 13:00:49;;;;;;;;;;;24.70;59.40;;;;;;5075666;28;19924;-66
2021/09/13 13:03:16;;;;;;;;;;;24.70;59.40;;;;;;5107582;28;20268;-66
2021/09/13 13:05:50;;;;;;;;;;;24.70;59.40;;;;;;5090036;28;20350;-66
2021/09/13 13:08:17;;;;;;;;;;;24.70;59.40;;;;;;5089592;28;19963;-67
2021/09/13 13:10:45;;;;;;;;;;;24.60;59.40;;;;;;5091054;28;20035;-66
2021/09/13 13:13:12;;;;;;;;;;;24.70;59.50;;;;;;5090578;28;19928;-66
2021/09/13 13:15:39;;;;;;;;;;;24.70;59.50;;;;;;5091048;28;19924;-66
2021/09/13 13:18:20;;;;;;;;;;;24.70;59.50;;;;;;5088540;28;19928;-69
2021/09/13 13:20:48;;;;;;;;;;;24.70;59.50;;;;;;5107077;28;20372;-66
2021/09/13 13:23:16;;;;;;;;;;;24.70;59.50;;;;;;5090760;28;20015;-66
2021/09/13 13:25:44;;;;;;;;;;;24.70;59.50;;;;;;5106170;28;19928;-67
2021/09/13 13:28:11;;;;;;;;;;;24.70;59.50;;;;;;5106006;28;19955;-67
2021/09/13 13:30:39;;;;;;;;;;;24.70;59.50;;;;;;5093910;28;19931;-66
2021/09/13 13:33:07;;;;;;;;;;;24.70;59.50;;;;;;5102111;28;20011;-66
2021/09/13 13:35:35;;;;;;;;;;;24.60;59.50;;;;;;5094208;28;20330;-66
2021/09/13 13:38:02;;;;;;;;;;;24.70;59.50;;;;;;5100362;28;19948;-67
2021/09/13 13:40:29;;;;;;;;;;;24.70;59.50;;;;;;5105785;28;20418;-66
2021/09/13 13:42:57;;;;;;;;;;;24.60;59.50;;;;;;5102024;28;19951;-67
2021/09/13 13:45:24;;;;;;;;;;;24.60;59.50;;;;;;5098765;28;19960;-66
2021/09/13 13:47:52;;;;;;;;;;;24.70;59.60;;;;;;5106590;28;20019;-66
2021/09/13 13:50:20;;;;;;;;;;;24.60;59.50;;;;;;5105771;28;19983;-66
2021/09/13 13:52:47;;;;;;;;;;;24.60;59.60;;;;;;5103660;28;20015;-66
2021/09/13 13:55:16;;;;;;;;;;;24.60;59.60;;;;;;5102169;28;19978;-67
2021/09/13 13:57:43;;;;;;;;;;;24.60;59.60;;;;;;5102833;28;19971;-67
2021/09/13 14:00:11;;;;;;;;;;;24.60;59.60;;;;;;5090275;28;20380;-67
2021/09/13 14:02:38;;;;;;;;;;;24.60;59.60;;;;;;5089170;28;19974;-67
2021/09/13 14:05:06;;;;;;;;;;;24.70;59.70;;;;;;5086491;28;19924;-66
2021/09/13 14:07:33;;;;;;;;;;;24.70;59.60;;;;;;5075564;28;19982;-67
2021/09/13 14:10:01;;;;;;;;;;;24.70;59.50;;;;;;5075418;28;19931;-66
2021/09/13 14:12:28;;;;;;;;;;;24.70;59.50;;;;;;5076879;28;19924;-66
2021/09/13 14:14:55;;;;;;;;;;;24.70;59.50;;;;;;5076391;28;20027;-66
2021/09/13 14:17:22;;;;;;;;;;;24.70;59.50;;;;;;5091434;28;20352;-67
2021/09/13 14:19:50;;;;;;;;;;;24.70;59.50;;;;;;5093480;28;20279;-66
2021/09/13 14:22:17;;;;;;;;;;;24.80;59.50;;;;;;5075674;28;19959;-68
2021/09/13 14:24:44;;;;;;;;;;;24.80;59.50;;;;;;5076398;28;20391;-66
2021/09/13 14:27:11;;;;;;;;;;;24.80;59.50;;;;;;5090668;28;20032;-66
2021/09/13 14:29:38;;;;;;;;;;;24.70;59.50;;;;;;5079331;28;19924;-67
2021/09/13 14:32:05;;;;;;;;;;;24.80;59.60;;;;;;5088901;28;19996;-66